This is the latest recevied weather packets stored in our database for station/object NW1E. If no packets are shown the sender has not sent any weather packets the latest 10 day(s).
| Time | Temp. | Humidity | Pressure | Rain* | Wind** | Luminosity | Snow |
|---|---|---|---|---|---|---|---|
| 1777648387 | 29.44° C | 68% | 1013.1 hPa | 0 mm | - | 870 W/m² | - |
| 1777648081 | 28.89° C | 69% | 1013.1 hPa | 0 mm | - | 732 W/m² | - |
| 1777644459 | 27.78° C | 73% | 1013.1 hPa | 0 mm | - | 382 W/m² | - |
| 1777643556 | 26.67° C | 76% | 1013.2 hPa | 0 mm | - | 647 W/m² | - |
| 1777642957 | 26.67° C | 78% | 1013.1 hPa | 0 mm | - | 239 W/m² | - |
| 1777638628 | 23.33° C | 94% | 1012.7 hPa | 0 mm | - | 58 W/m² | - |
| 1777638154 | 22.78° C | 94% | 1012.6 hPa | 0 mm | - | 56 W/m² | - |
| 1777637233 | 22.22° C | 94% | 1012.6 hPa | 0 mm | - | 155 W/m² | - |
| 1777636030 | 21.11° C | 94% | 1012.6 hPa | 0 mm | - | 116 W/m² | - |
| 1777635730 | 21.11° C | 94% | 1012.4 hPa | 0 mm | - | 51 W/m² | - |
| 1777632064 | 20° C | 93% | 1011.9 hPa | 0 mm | - | 0 W/m² | - |
| 1777630788 | 20° C | 93% | 1011.9 hPa | 0 mm | - | 0 W/m² | - |
| 1777629909 | 20.56° C | 93% | 1011.7 hPa | 0 mm | - | 0 W/m² | - |
| 1777626725 | 20.56° C | 93% | 1011.4 hPa | 0 mm | - | 0 W/m² | - |
| 1777625826 | 20.56° C | 92% | 1011.3 hPa | 0 mm | - | 0 W/m² | - |
| 1777625524 | 21.11° C | 92% | 1011.1 hPa | 0 mm | - | 0 W/m² | - |
| 1777624624 | 21.11° C | 92% | 1011.2 hPa | 0 mm | - | 0 W/m² | - |
| 1777623423 | 21.67° C | 92% | 1011.3 hPa | 0 mm | - | 0 W/m² | - |
| 1777622823 | 22.22° C | 92% | 1011.5 hPa | 0 mm | - | 0 W/m² | - |
| 1777620754 | 22.78° C | 92% | 1011.4 hPa | 0 mm | - | 0 W/m² | - |
| 1777618299 | 23.33° C | 90% | 1011.6 hPa | 0 mm | - | 0 W/m² | - |
| 1777617391 | 23.33° C | 90% | 1011.6 hPa | 0 mm | - | 0 W/m² | - |
| 1777616194 | 23.33° C | 91% | 1012 hPa | 0 mm | - | 0 W/m² | - |
| 1777615894 | 23.33° C | 91% | 1012 hPa | 0 mm | - | 0 W/m² | - |
| 1777613493 | 23.33° C | 91% | 1012.2 hPa | 0 mm | - | 0 W/m² | - |
* Rain latest hour (hover to see other rain measurements)
** Current wind speed in m/s (hover to see current wind gust speed)